Time,TemperatureF,DewpointF,PressureIn,WindDirection,WindDirectionDegrees,WindSpeedMPH,WindSpeedGustMPH,Humidity,HourlyPrecipIn,Conditions,Clouds,dailyrainin,SolarRadiationWatts/m^2,SoftwareType,DateUTC
2013-01-25 00:03:00,12.0,9.0,-100.00,SW,236,0.0,0.0,86,0.00,,,0.00,0.000000,,2013-01-25 05:03:00,
2013-01-25 00:12:00,12.0,9.0,-100.00,SW,236,0.0,0.0,86,0.00,,,0.00,0.000000,,2013-01-25 05:12:00,
2013-01-25 00:22:00,12.0,9.0,-100.00,SW,236,0.0,0.0,86,0.00,,,0.00,0.000000,,2013-01-25 05:22:00,
2013-01-25 00:43:00,13.0,11.0,-100.00,ESE,106,0.0,0.0,92,0.00,,,0.00,0.000000,,2013-01-25 05:43:00,
2013-01-25 00:52:00,13.0,11.0,-100.00,ESE,106,0.0,0.0,92,0.00,,,0.00,0.000000,,2013-01-25 05:52:00,
2013-01-25 01:02:00,13.0,11.0,-100.00,ESE,106,0.0,0.0,92,0.00,,,0.00,0.000000,,2013-01-25 06:02:00,
2013-01-25 01:12:00,13.0,11.0,-100.00,ESE,106,0.0,0.0,92,0.00,,,0.00,0.000000,,2013-01-25 06:12:00,
2013-01-25 01:21:00,13.0,11.0,-100.00,ESE,106,0.0,0.0,92,0.00,,,0.00,0.000000,,2013-01-25 06:21:00,
2013-01-25 01:42:00,14.0,13.0,-100.00,SW,217,0.0,0.0,95,0.00,,,0.00,0.000000,,2013-01-25 06:42:00,
2013-01-25 01:52:00,14.0,13.0,-100.00,SW,217,0.0,0.0,95,0.00,,,0.00,0.000000,,2013-01-25 06:52:00,
2013-01-25 02:02:00,14.0,13.0,-100.00,SW,217,0.0,0.0,95,0.00,,,0.00,0.000000,,2013-01-25 07:02:00,
2013-01-25 02:11:00,14.0,13.0,-100.00,SW,217,0.0,0.0,95,0.00,,,0.00,0.000000,,2013-01-25 07:11:00,
2013-01-25 02:21:00,14.0,13.0,-100.00,SW,217,0.0,0.0,95,0.00,,,0.00,0.000000,,2013-01-25 07:21:00,
2013-01-25 02:42:00,14.0,11.0,-100.00,East,96,0.0,0.0,88,0.00,,,0.00,0.000000,,2013-01-25 07:42:00,
2013-01-25 02:52:00,14.0,11.0,-100.00,East,96,0.0,0.0,88,0.00,,,0.00,0.000000,,2013-01-25 07:52:00,
2013-01-25 03:02:00,14.0,11.0,-100.00,East,96,0.0,0.0,88,0.00,,,0.00,0.000000,,2013-01-25 08:02:00,
2013-01-25 03:12:00,14.0,11.0,-100.00,East,96,0.0,0.0,88,0.00,,,0.00,0.000000,,2013-01-25 08:12:00,
2013-01-25 03:21:00,14.0,11.0,-100.00,East,96,0.0,0.0,88,0.00,,,0.00,0.000000,,2013-01-25 08:21:00,
2013-01-25 03:42:00,16.0,8.0,-100.00,East,99,1.0,3.0,71,0.00,,,0.00,0.000000,,2013-01-25 08:42:00,
2013-01-25 03:52:00,16.0,8.0,-100.00,East,99,1.0,3.0,71,0.00,,,0.00,0.000000,,2013-01-25 08:52:00,
2013-01-25 04:02:00,16.0,8.0,-100.00,East,99,1.0,3.0,71,0.00,,,0.00,0.000000,,2013-01-25 09:02:00,
2013-01-25 04:11:00,16.0,8.0,-100.00,East,99,1.0,3.0,71,0.00,,,0.00,0.000000,,2013-01-25 09:11:00,
2013-01-25 04:21:00,16.0,8.0,-100.00,East,99,1.0,3.0,71,0.00,,,0.00,0.000000,,2013-01-25 09:21:00,
2013-01-25 04:42:00,17.0,9.0,-100.00,East,87,2.0,4.0,69,0.00,,,0.00,0.000000,,2013-01-25 09:42:00,
2013-01-25 04:52:00,17.0,9.0,-100.00,East,87,2.0,4.0,69,0.00,,,0.00,0.000000,,2013-01-25 09:52:00,
2013-01-25 05:02:00,17.0,9.0,-100.00,East,87,2.0,4.0,69,0.00,,,0.00,0.000000,,2013-01-25 10:02:00,
2013-01-25 05:12:00,17.0,9.0,-100.00,East,87,2.0,4.0,69,0.00,,,0.00,0.000000,,2013-01-25 10:12:00,
2013-01-25 05:21:00,17.0,9.0,-100.00,East,87,2.0,4.0,69,0.00,,,0.00,0.000000,,2013-01-25 10:21:00,
2013-01-25 05:42:00,17.0,8.0,-100.00,ESE,115,2.0,6.0,67,0.00,,,0.00,0.000000,,2013-01-25 10:42:00,
2013-01-25 05:52:00,17.0,8.0,-100.00,ESE,115,2.0,6.0,67,0.00,,,0.00,0.000000,,2013-01-25 10:52:00,
2013-01-25 06:03:00,17.0,8.0,-100.00,ESE,115,2.0,6.0,67,0.00,,,0.00,0.000000,,2013-01-25 11:03:00,
2013-01-25 06:11:00,17.0,8.0,-100.00,ESE,115,2.0,6.0,67,0.00,,,0.00,0.000000,,2013-01-25 11:11:00,
2013-01-25 06:22:00,17.0,8.0,-100.00,ESE,115,2.0,6.0,67,0.00,,,0.00,0.000000,,2013-01-25 11:22:00,
2013-01-25 06:42:00,17.0,9.0,-100.00,East,96,1.0,8.0,69,0.00,,,0.00,0.000000,,2013-01-25 11:42:00,
2013-01-25 06:52:00,17.0,9.0,-100.00,East,96,1.0,8.0,69,0.00,,,0.00,0.000000,,2013-01-25 11:52:00,
2013-01-25 07:03:00,17.0,9.0,-100.00,East,96,1.0,8.0,69,0.00,,,0.00,0.000000,,2013-01-25 12:03:00,
2013-01-25 07:12:00,17.0,9.0,-100.00,East,96,1.0,8.0,69,0.00,,,0.00,0.000000,,2013-01-25 12:12:00,
2013-01-25 07:22:00,17.0,9.0,-100.00,East,96,1.0,8.0,69,0.00,,,0.00,0.000000,,2013-01-25 12:22:00,
2013-01-25 07:42:00,17.0,9.0,-100.00,NNE,30,0.0,7.0,69,0.00,,,0.00,0.000000,,2013-01-25 12:42:00,
2013-01-25 07:53:00,17.0,9.0,-100.00,NNE,30,0.0,7.0,69,0.00,,,0.00,0.000000,,2013-01-25 12:53:00,
2013-01-25 08:03:00,17.0,9.0,-100.00,NNE,30,0.0,7.0,69,0.00,,,0.00,0.000000,,2013-01-25 13:03:00,
2013-01-25 08:12:00,17.0,9.0,-100.00,NNE,30,0.0,7.0,69,0.00,,,0.00,0.000000,,2013-01-25 13:12:00,
2013-01-25 08:22:00,17.0,9.0,-100.00,NNE,30,0.0,7.0,69,0.00,,,0.00,0.000000,,2013-01-25 13:22:00,
2013-01-25 08:23:00,17.0,8.0,-100.00,East,101,1.0,3.0,68,0.00,,,0.00,1.000000,,2013-01-25 13:23:00,
2013-01-25 08:43:00,17.0,8.0,-100.00,East,101,1.0,3.0,68,0.00,,,0.00,1.000000,,2013-01-25 13:43:00,
2013-01-25 08:53:00,17.0,8.0,-100.00,East,101,1.0,3.0,68,0.00,,,0.00,1.000000,,2013-01-25 13:53:00,
2013-01-25 09:03:00,17.0,8.0,-100.00,East,101,1.0,3.0,68,0.00,,,0.00,1.000000,,2013-01-25 14:03:00,
2013-01-25 09:12:00,17.0,8.0,-100.00,East,101,1.0,3.0,68,0.00,,,0.00,1.000000,,2013-01-25 14:12:00,
2013-01-25 09:42:00,16.0,16.0,-100.00,East,86,2.0,6.0,98,0.00,,,0.00,6.000000,,2013-01-25 14:42:00,
2013-01-25 09:53:00,16.0,16.0,-100.00,East,86,2.0,6.0,98,0.00,,,0.00,6.000000,,2013-01-25 14:53:00,
2013-01-25 10:03:00,16.0,16.0,-100.00,East,86,2.0,6.0,98,0.00,,,0.00,6.000000,,2013-01-25 15:03:00,
2013-01-25 10:13:00,16.0,16.0,-100.00,East,86,2.0,6.0,98,0.00,,,0.00,6.000000,,2013-01-25 15:13:00,
2013-01-25 10:22:00,16.0,16.0,-100.00,East,86,2.0,6.0,98,0.00,,,0.00,6.000000,,2013-01-25 15:22:00,
2013-01-25 10:23:00,17.0,17.0,-100.00,East,86,0.0,5.0,100,0.00,,,0.00,11.000000,,2013-01-25 15:23:00,
2013-01-25 10:43:00,17.0,17.0,-100.00,East,86,0.0,5.0,100,0.00,,,0.00,11.000000,,2013-01-25 15:43:00,
2013-01-25 10:53:00,17.0,17.0,-100.00,East,86,0.0,5.0,100,0.00,,,0.00,11.000000,,2013-01-25 15:53:00,
2013-01-25 11:03:00,17.0,17.0,-100.00,East,86,0.0,5.0,100,0.00,,,0.00,11.000000,,2013-01-25 16:03:00,
2013-01-25 11:12:00,17.0,17.0,-100.00,East,86,0.0,5.0,100,0.00,,,0.00,11.000000,,2013-01-25 16:12:00,
2013-01-25 11:43:00,18.0,18.0,-100.00,East,94,3.0,5.0,99,0.00,,,-99.99,24.000000,,2013-01-25 16:43:00,
2013-01-25 11:53:00,18.0,18.0,-100.00,East,94,3.0,5.0,99,0.00,,,-99.99,24.000000,,2013-01-25 16:53:00,
2013-01-25 12:03:00,18.0,18.0,-100.00,East,94,3.0,5.0,99,0.00,,,-99.99,24.000000,,2013-01-25 17:03:00,
2013-01-25 12:12:00,18.0,18.0,-100.00,East,94,3.0,5.0,99,0.00,,,-99.99,24.000000,,2013-01-25 17:12:00,
2013-01-25 12:22:00,18.0,18.0,-100.00,East,94,3.0,5.0,99,0.00,,,-99.99,24.000000,,2013-01-25 17:22:00,
2013-01-25 12:23:00,18.0,18.0,-100.00,ENE,69,1.0,6.0,100,0.00,,,0.00,22.000000,,2013-01-25 17:23:00,
2013-01-25 12:43:00,18.0,18.0,-100.00,ENE,69,1.0,6.0,100,0.00,,,0.00,22.000000,,2013-01-25 17:43:00,
2013-01-25 12:53:00,18.0,18.0,-100.00,ENE,69,1.0,6.0,100,0.00,,,0.00,22.000000,,2013-01-25 17:53:00,
2013-01-25 13:03:00,18.0,18.0,-100.00,ENE,69,1.0,6.0,100,0.00,,,0.00,22.000000,,2013-01-25 18:03:00,
2013-01-25 13:12:00,18.0,18.0,-100.00,ENE,69,1.0,6.0,100,0.00,,,0.00,22.000000,,2013-01-25 18:12:00,
2013-01-25 13:43:00,21.0,20.0,-100.00,ESE,111,0.0,2.0,97,0.00,,,0.00,28.000000,,2013-01-25 18:43:00,
2013-01-25 13:53:00,21.0,20.0,-100.00,ESE,111,0.0,2.0,97,0.00,,,0.00,28.000000,,2013-01-25 18:53:00,
2013-01-25 14:03:00,21.0,20.0,-100.00,ESE,111,0.0,2.0,97,0.00,,,0.00,28.000000,,2013-01-25 19:03:00,
2013-01-25 14:12:00,21.0,20.0,-100.00,ESE,111,0.0,2.0,97,0.00,,,0.00,28.000000,,2013-01-25 19:12:00,
2013-01-25 14:22:00,21.0,20.0,-100.00,ESE,111,0.0,2.0,97,0.00,,,0.00,28.000000,,2013-01-25 19:22:00,
2013-01-25 14:42:00,22.0,20.0,-100.00,ENE,74,0.0,0.0,91,0.00,,,0.00,30.000000,,2013-01-25 19:42:00,
2013-01-25 14:53:00,22.0,20.0,-100.00,ENE,74,0.0,0.0,91,0.00,,,0.00,30.000000,,2013-01-25 19:53:00,
2013-01-25 15:03:00,22.0,20.0,-100.00,ENE,74,0.0,0.0,91,0.00,,,0.00,30.000000,,2013-01-25 20:03:00,
2013-01-25 15:12:00,22.0,20.0,-100.00,ENE,74,0.0,0.0,91,0.00,,,0.00,30.000000,,2013-01-25 20:12:00,
2013-01-25 15:22:00,22.0,20.0,-100.00,ENE,74,0.0,0.0,91,0.00,,,0.00,30.000000,,2013-01-25 20:22:00,
2013-01-25 15:23:00,22.0,20.0,-100.00,NNE,25,0.0,0.0,90,0.00,,,0.00,25.000000,,2013-01-25 20:23:00,
2013-01-25 15:43:00,22.0,20.0,-100.00,NNE,25,0.0,0.0,90,0.00,,,0.00,25.000000,,2013-01-25 20:43:00,
2013-01-25 15:53:00,22.0,20.0,-100.00,NNE,25,0.0,0.0,90,0.00,,,0.00,25.000000,,2013-01-25 20:53:00,
2013-01-25 16:02:00,22.0,20.0,-100.00,NNE,25,0.0,0.0,90,0.00,,,0.00,25.000000,,2013-01-25 21:02:00,
2013-01-25 16:12:00,22.0,20.0,-100.00,NNE,25,0.0,0.0,90,0.00,,,0.00,25.000000,,2013-01-25 21:12:00,
2013-01-25 16:43:00,22.0,19.0,-100.00,NW,324,0.0,0.0,88,0.00,,,0.00,18.000000,,2013-01-25 21:43:00,
2013-01-25 16:52:00,22.0,19.0,-100.00,NW,324,0.0,0.0,88,0.00,,,0.00,18.000000,,2013-01-25 21:52:00,
2013-01-25 17:03:00,22.0,19.0,-100.00,NW,324,0.0,0.0,88,0.00,,,0.00,18.000000,,2013-01-25 22:03:00,
2013-01-25 17:12:00,22.0,19.0,-100.00,NW,324,0.0,0.0,88,0.00,,,0.00,18.000000,,2013-01-25 22:12:00,
2013-01-25 17:22:00,22.0,19.0,-100.00,NW,324,0.0,0.0,88,0.00,,,0.00,18.000000,,2013-01-25 22:22:00,
2013-01-25 17:42:00,21.0,19.0,-100.00,WNW,293,0.0,0.0,93,0.00,,,0.00,7.000000,,2013-01-25 22:42:00,
2013-01-25 17:53:00,21.0,19.0,-100.00,WNW,293,0.0,0.0,93,0.00,,,0.00,7.000000,,2013-01-25 22:53:00,
2013-01-25 18:02:00,21.0,19.0,-100.00,WNW,293,0.0,0.0,93,0.00,,,0.00,7.000000,,2013-01-25 23:02:00,
2013-01-25 18:12:00,21.0,19.0,-100.00,WNW,293,0.0,0.0,93,0.00,,,0.00,7.000000,,2013-01-25 23:12:00,
2013-01-25 18:22:00,21.0,19.0,-100.00,WNW,293,0.0,0.0,93,0.00,,,0.00,7.000000,,2013-01-25 23:22:00,
2013-01-25 18:42:00,20.0,20.0,-100.00,WSW,254,0.0,0.0,99,0.00,,,0.00,0.000000,,2013-01-25 23:42:00,
2013-01-25 18:53:00,20.0,20.0,-100.00,WSW,254,0.0,0.0,99,0.00,,,0.00,0.000000,,2013-01-25 23:53:00,
2013-01-25 19:02:00,20.0,20.0,-100.00,WSW,254,0.0,0.0,99,0.00,,,0.00,0.000000,,2013-01-26 00:02:00,
2013-01-25 19:12:00,20.0,20.0,-100.00,WSW,254,0.0,0.0,99,0.00,,,0.00,0.000000,,2013-01-26 00:12:00,
2013-01-25 19:22:00,20.0,20.0,-100.00,WSW,254,0.0,0.0,99,0.00,,,0.00,0.000000,,2013-01-26 00:22:00,
2013-01-25 19:42:00,20.0,20.0,-100.00,NNW,339,0.0,0.0,100,0.00,,,0.00,0.000000,,2013-01-26 00:42:00,
2013-01-25 19:53:00,20.0,20.0,-100.00,NNW,339,0.0,0.0,100,0.00,,,0.00,0.000000,,2013-01-26 00:53:00,
2013-01-25 20:02:00,20.0,20.0,-100.00,NNW,339,0.0,0.0,100,0.00,,,0.00,0.000000,,2013-01-26 01:02:00,
2013-01-25 20:12:00,20.0,20.0,-100.00,NNW,339,0.0,0.0,100,0.00,,,0.00,0.000000,,2013-01-26 01:12:00,
2013-01-25 20:22:00,20.0,20.0,-100.00,NNW,339,0.0,0.0,100,0.00,,,0.00,0.000000,,2013-01-26 01:22:00,
2013-01-25 20:42:00,20.0,20.0,-100.00,NNW,342,0.0,4.0,100,0.00,,,0.00,0.000000,,2013-01-26 01:42:00,
2013-01-25 20:52:00,20.0,20.0,-100.00,NNW,342,0.0,4.0,100,0.00,,,0.00,0.000000,,2013-01-26 01:52:00,
2013-01-25 21:02:00,20.0,20.0,-100.00,NNW,342,0.0,4.0,100,0.00,,,0.00,0.000000,,2013-01-26 02:02:00,
2013-01-25 21:12:00,20.0,20.0,-100.00,NNW,342,0.0,4.0,100,0.00,,,0.00,0.000000,,2013-01-26 02:12:00,
2013-01-25 21:22:00,20.0,20.0,-100.00,NNW,342,0.0,4.0,100,0.00,,,0.00,0.000000,,2013-01-26 02:22:00,
2013-01-25 21:42:00,20.0,20.0,-100.00,ENE,72,0.0,2.0,100,0.00,,,0.00,0.000000,,2013-01-26 02:42:00,
2013-01-25 21:52:00,20.0,20.0,-100.00,ENE,72,0.0,2.0,100,0.00,,,0.00,0.000000,,2013-01-26 02:52:00,
2013-01-25 22:02:00,20.0,20.0,-100.00,ENE,72,0.0,2.0,100,0.00,,,0.00,0.000000,,2013-01-26 03:02:00,
2013-01-25 22:12:00,20.0,20.0,-100.00,ENE,72,0.0,2.0,100,0.00,,,0.00,0.000000,,2013-01-26 03:12:00,
2013-01-25 22:22:00,20.0,20.0,-100.00,ENE,72,0.0,2.0,100,0.00,,,0.00,0.000000,,2013-01-26 03:22:00,
2013-01-25 22:43:00,20.0,20.0,-100.00,West,274,0.0,5.0,100,0.00,,,0.00,0.000000,,2013-01-26 03:43:00,
2013-01-25 22:52:00,20.0,20.0,-100.00,West,274,0.0,5.0,100,0.00,,,0.00,0.000000,,2013-01-26 03:52:00,
2013-01-25 23:02:00,20.0,20.0,-100.00,West,274,0.0,5.0,100,0.00,,,0.00,0.000000,,2013-01-26 04:02:00,
2013-01-25 23:12:00,20.0,20.0,-100.00,West,274,0.0,5.0,100,0.00,,,0.00,0.000000,,2013-01-26 04:12:00,
2013-01-25 23:21:00,20.0,20.0,-100.00,West,274,0.0,5.0,100,0.00,,,0.00,0.000000,,2013-01-26 04:21:00,
2013-01-25 23:23:00,21.0,21.0,-100.00,SE,125,0.0,0.0,100,0.00,,,0.00,0.000000,,2013-01-26 04:23:00,
2013-01-25 23:43:00,21.0,21.0,-100.00,SE,125,0.0,0.0,100,0.00,,,0.00,0.000000,,2013-01-26 04:43:00,
2013-01-25 23:52:00,21.0,21.0,-100.00,SE,125,0.0,0.0,100,0.00,,,0.00,0.000000,,2013-01-26 04:52:00,